createdAt,value
2017-11-09T00:01:56.547Z,96.29
2017-11-09T00:04:29.701Z,96.26
2017-11-09T00:06:57.402Z,96.29
2017-11-09T00:09:25.058Z,96.28
2017-11-09T00:11:52.739Z,96.10
2017-11-09T00:14:20.400Z,96.07
2017-11-09T00:16:48.128Z,96.17
2017-11-09T00:19:15.777Z,96.24
2017-11-09T00:21:43.440Z,96.28
2017-11-09T00:24:11.129Z,96.50
2017-11-09T00:26:38.790Z,96.67
2017-11-09T00:29:06.496Z,96.62
2017-11-09T00:31:34.141Z,96.64
2017-11-09T00:34:01.831Z,96.57
2017-11-09T00:36:29.502Z,96.56
2017-11-09T00:38:57.257Z,96.54
2017-11-09T00:41:24.917Z,96.45
2017-11-09T00:43:52.599Z,96.46
2017-11-09T00:46:20.264Z,96.35
2017-11-09T00:48:47.896Z,96.33
2017-11-09T00:51:15.571Z,96.36
2017-11-09T00:53:44.087Z,96.18
2017-11-09T00:56:11.743Z,96.14
2017-11-09T00:58:39.368Z,96.17
2017-11-09T01:01:06.976Z,96.26
2017-11-09T01:03:34.684Z,96.29
2017-11-09T01:06:02.339Z,96.36
2017-11-09T01:08:30.054Z,96.46
2017-11-09T01:10:57.638Z,96.59
2017-11-09T01:13:25.285Z,96.72
2017-11-09T01:15:52.987Z,96.76
2017-11-09T01:18:20.638Z,96.79
2017-11-09T01:20:48.330Z,96.80
2017-11-09T01:23:15.979Z,96.81
2017-11-09T01:25:43.690Z,96.78
2017-11-09T01:28:11.354Z,96.74
2017-11-09T01:30:39.051Z,96.75
2017-11-09T01:33:06.700Z,96.74
2017-11-09T01:35:34.406Z,96.81
2017-11-09T01:38:02.003Z,96.97
2017-11-09T01:40:29.723Z,97.08
2017-11-09T01:42:57.379Z,97.10
2017-11-09T01:45:25.093Z,97.14
2017-11-09T01:47:52.734Z,97.20
2017-11-09T01:50:20.417Z,97.23
2017-11-09T01:52:48.072Z,97.35
2017-11-09T01:55:15.763Z,97.46
2017-11-09T01:57:43.416Z,97.55
2017-11-09T02:00:11.127Z,97.63
2017-11-09T02:02:38.775Z,97.70
2017-11-09T02:05:06.402Z,97.75
2017-11-09T02:07:34.051Z,97.75
2017-11-09T02:10:01.756Z,97.75
2017-11-09T02:12:29.431Z,97.80
2017-11-09T02:14:57.109Z,97.83
2017-11-09T02:17:24.833Z,97.86
2017-11-09T02:19:52.491Z,97.89
2017-11-09T02:22:20.195Z,97.91
2017-11-09T02:24:47.864Z,98.01
2017-11-09T02:27:15.596Z,98.04
2017-11-09T02:29:43.271Z,98.06
2017-11-09T02:32:11.012Z,98.07
2017-11-09T02:34:38.676Z,98.07
2017-11-09T02:37:06.321Z,98.07
2017-11-09T02:39:34.021Z,98.04
2017-11-09T02:42:01.659Z,98.01
2017-11-09T02:44:29.317Z,97.95
2017-11-09T02:46:57.010Z,98.03
2017-11-09T02:49:24.599Z,98.06
2017-11-09T02:51:52.253Z,98.08
2017-11-09T02:54:30.663Z,98.06
2017-11-09T02:56:59.109Z,98.09
2017-11-09T02:59:27.673Z,98.23
2017-11-09T03:01:55.294Z,98.42
2017-11-09T03:04:22.944Z,98.61
2017-11-09T03:06:50.604Z,98.69
2017-11-09T03:09:18.313Z,98.73
2017-11-09T03:11:45.976Z,98.73
2017-11-09T03:14:13.607Z,98.75
2017-11-09T03:16:41.231Z,98.78
2017-11-09T03:19:08.940Z,98.79
2017-11-09T03:21:36.599Z,98.77
2017-11-09T03:24:04.286Z,98.74
2017-11-09T03:26:31.926Z,98.71
2017-11-09T03:28:59.621Z,98.64
2017-11-09T03:31:27.285Z,98.58
2017-11-09T03:33:54.918Z,98.61
2017-11-09T03:36:22.569Z,98.62
2017-11-09T03:38:50.299Z,98.59
2017-11-09T03:41:17.969Z,98.56
2017-11-09T03:43:45.675Z,98.56
2017-11-09T03:46:13.378Z,98.57
2017-11-09T03:48:41.076Z,98.68
2017-11-09T03:51:08.725Z,98.83
2017-11-09T03:53:36.408Z,99.01
2017-11-09T03:56:04.082Z,99.08
2017-11-09T03:58:31.786Z,99.12
2017-11-09T04:00:59.445Z,99.16
2017-11-09T04:03:27.064Z,99.20
2017-11-09T04:05:54.720Z,99.24
2017-11-09T04:08:22.419Z,99.27
2017-11-09T04:10:50.073Z,99.32
2017-11-09T04:13:17.819Z,99.35
2017-11-09T04:15:45.483Z,99.33
2017-11-09T04:18:13.182Z,99.23
2017-11-09T04:20:40.846Z,99.16
2017-11-09T04:23:08.507Z,99.12
2017-11-09T04:25:36.123Z,99.13
2017-11-09T04:28:03.771Z,99.26
2017-11-09T04:30:31.407Z,99.37
2017-11-09T04:32:59.068Z,99.33
2017-11-09T04:35:26.784Z,99.36
2017-11-09T04:37:54.360Z,99.34
2017-11-09T04:40:22.022Z,99.14
2017-11-09T04:42:49.681Z,99.00
2017-11-09T04:45:17.365Z,98.96
2017-11-09T04:47:45.025Z,98.92
2017-11-09T04:50:12.725Z,98.84
2017-11-09T04:52:40.363Z,98.78
2017-11-09T04:55:08.059Z,98.67
2017-11-09T04:57:35.704Z,98.55
2017-11-09T05:00:03.438Z,98.47
2017-11-09T05:02:31.096Z,98.37
2017-11-09T05:04:58.754Z,98.39
2017-11-09T05:07:26.444Z,98.37
2017-11-09T05:09:54.110Z,98.35
2017-11-09T05:12:21.739Z,98.26
2017-11-09T05:14:49.329Z,98.20
2017-11-09T05:17:16.953Z,98.23
2017-11-09T05:19:44.608Z,98.19
2017-11-09T05:22:12.296Z,98.11
2017-11-09T05:24:39.967Z,98.08
2017-11-09T05:27:07.675Z,98.08
2017-11-09T05:29:35.278Z,97.91
2017-11-09T05:32:02.910Z,97.83
2017-11-09T05:34:30.560Z,97.83
2017-11-09T05:36:58.278Z,97.79
2017-11-09T05:39:25.873Z,97.76
2017-11-09T05:41:53.507Z,97.78
2017-11-09T05:44:21.107Z,97.74
2017-11-09T05:46:48.755Z,97.71
2017-11-09T05:49:16.355Z,97.68
2017-11-09T05:51:44.000Z,97.58
2017-11-09T05:54:11.592Z,97.62
2017-11-09T05:56:39.219Z,97.60
2017-11-09T05:59:06.832Z,97.60
2017-11-09T06:01:34.499Z,97.51
2017-11-09T06:04:02.102Z,97.48
2017-11-09T06:06:29.697Z,97.50
2017-11-09T06:08:57.321Z,97.46
2017-11-09T06:11:24.930Z,97.40
2017-11-09T06:13:52.548Z,97.41
2017-11-09T06:16:20.139Z,97.34
2017-11-09T06:18:47.773Z,97.29
2017-11-09T06:21:15.389Z,97.21
2017-11-09T06:23:43.038Z,97.17
2017-11-09T06:26:10.638Z,97.22
2017-11-09T06:28:38.263Z,97.17
2017-11-09T06:31:05.860Z,97.20
2017-11-09T06:33:33.505Z,97.14
2017-11-09T06:36:01.135Z,97.17
2017-11-09T06:38:28.776Z,97.09
2017-11-09T06:40:56.379Z,97.08
2017-11-09T06:43:24.028Z,97.09
2017-11-09T06:45:51.622Z,97.14
2017-11-09T06:48:19.251Z,97.15
2017-11-09T06:50:46.863Z,97.07
2017-11-09T06:53:14.650Z,97.06
2017-11-09T06:55:42.253Z,97.08
2017-11-09T06:58:09.843Z,97.11
2017-11-09T07:00:37.476Z,97.17
2017-11-09T07:03:05.068Z,97.18
2017-11-09T07:05:32.705Z,97.13
2017-11-09T07:08:00.305Z,97.11
2017-11-09T07:10:27.985Z,97.10
2017-11-09T07:12:55.579Z,97.09
2017-11-09T07:15:23.223Z,97.08
2017-11-09T07:17:50.820Z,97.04
2017-11-09T07:20:18.539Z,97.00
2017-11-09T07:22:46.215Z,96.96
2017-11-09T07:25:13.920Z,96.91
2017-11-09T07:27:41.591Z,96.90
2017-11-09T07:30:09.310Z,96.94
2017-11-09T07:32:36.969Z,97.01
2017-11-09T07:35:04.616Z,97.00
2017-11-09T07:37:32.243Z,97.05
2017-11-09T07:39:59.879Z,97.04
2017-11-09T07:42:27.554Z,97.00
2017-11-09T07:44:55.183Z,97.08
2017-11-09T07:47:22.777Z,97.09
2017-11-09T07:49:50.419Z,97.11
2017-11-09T07:52:18.090Z,97.15
2017-11-09T07:54:45.783Z,97.10
2017-11-09T07:57:13.447Z,97.10
2017-11-09T07:59:41.147Z,97.19
2017-11-09T08:02:08.803Z,97.18
2017-11-09T08:04:36.488Z,97.13
2017-11-09T08:07:04.146Z,97.22
2017-11-09T08:09:31.903Z,97.25
2017-11-09T08:11:59.680Z,97.27
2017-11-09T08:14:27.404Z,97.34
2017-11-09T08:16:55.112Z,97.39
2017-11-09T08:19:22.780Z,97.33
2017-11-09T08:21:50.497Z,97.31
2017-11-09T08:24:19.976Z,97.25
2017-11-09T08:26:50.397Z,97.25
2017-11-09T08:29:21.061Z,97.26
2017-11-09T08:31:51.927Z,97.20
2017-11-09T08:34:19.590Z,97.05
2017-11-09T08:36:47.287Z,97.05
2017-11-09T08:39:15.006Z,96.94
2017-11-09T08:41:42.710Z,96.86
2017-11-09T08:44:10.365Z,96.80
2017-11-09T08:46:38.068Z,96.73
2017-11-09T08:49:05.740Z,96.70
2017-11-09T08:51:33.424Z,96.44
2017-11-09T08:54:01.088Z,96.39
2017-11-09T08:56:28.832Z,96.35
2017-11-09T08:58:56.491Z,96.22
2017-11-09T09:01:24.145Z,96.19
2017-11-09T09:03:51.861Z,96.19
2017-11-09T09:06:19.527Z,96.06
2017-11-09T09:08:47.257Z,96.12
2017-11-09T09:11:14.956Z,96.15
2017-11-09T09:13:42.723Z,96.17
2017-11-09T09:16:10.404Z,96.09
2017-11-09T09:18:38.111Z,96.11
2017-11-09T09:21:09.310Z,96.02
2017-11-09T09:23:37.024Z,95.85
2017-11-09T09:26:10.260Z,95.81
2017-11-09T09:28:38.008Z,95.81
2017-11-09T09:31:05.650Z,95.69
2017-11-09T09:33:36.899Z,95.63
2017-11-09T09:36:07.158Z,95.45
2017-11-09T09:38:42.304Z,95.28
2017-11-09T09:41:10.021Z,95.42
2017-11-09T09:43:37.695Z,95.22
2017-11-09T09:46:05.322Z,95.19
2017-11-09T09:48:33.005Z,95.23
2017-11-09T09:51:00.798Z,95.27
2017-11-09T09:53:28.523Z,95.14
2017-11-09T09:55:56.176Z,95.06
2017-11-09T09:58:23.880Z,94.75
2017-11-09T10:00:51.525Z,94.87
2017-11-09T10:03:19.250Z,94.87
2017-11-09T10:05:46.880Z,94.82
2017-11-09T10:08:14.539Z,94.54
2017-11-09T10:10:42.140Z,94.44
2017-11-09T10:13:09.775Z,94.29
2017-11-09T10:15:37.381Z,94.20
2017-11-09T10:18:05.021Z,94.26
2017-11-09T10:20:32.634Z,94.19
2017-11-09T10:23:00.286Z,94.15
2017-11-09T10:25:27.882Z,94.22
2017-11-09T10:27:55.564Z,94.09
2017-11-09T10:30:23.163Z,94.15
2017-11-09T10:32:50.827Z,93.98
2017-11-09T10:35:18.457Z,93.99
2017-11-09T10:37:46.055Z,94.14
2017-11-09T10:40:13.689Z,94.51
2017-11-09T10:42:41.313Z,94.73
2017-11-09T10:45:08.952Z,94.49
2017-11-09T10:47:36.576Z,94.50
2017-11-09T10:50:04.205Z,94.63
2017-11-09T10:52:31.839Z,94.50
2017-11-09T10:54:59.485Z,94.22
2017-11-09T10:57:27.097Z,94.03
2017-11-09T10:59:54.732Z,93.78
2017-11-09T11:02:22.353Z,93.60
2017-11-09T11:04:49.998Z,93.59
2017-11-09T11:07:17.620Z,93.47
2017-11-09T11:09:45.275Z,93.12
2017-11-09T11:12:12.894Z,93.00
2017-11-09T11:14:40.535Z,92.76
2017-11-09T11:17:08.156Z,92.65
2017-11-09T11:19:35.842Z,92.30
2017-11-09T11:22:07.306Z,92.05
2017-11-09T11:24:34.959Z,91.90
2017-11-09T11:27:02.641Z,91.85
2017-11-09T11:29:30.372Z,91.91
2017-11-09T11:31:58.094Z,92.03
2017-11-09T11:34:25.781Z,91.94
2017-11-09T11:36:53.460Z,91.89
2017-11-09T11:39:21.062Z,91.97
2017-11-09T11:41:48.721Z,91.91
2017-11-09T11:44:16.328Z,91.76
2017-11-09T11:46:44.104Z,91.59
2017-11-09T11:49:11.830Z,92.20
2017-11-09T11:51:39.542Z,92.12
2017-11-09T11:54:07.224Z,92.26
2017-11-09T11:56:34.932Z,92.14
2017-11-09T11:59:02.611Z,92.08
2017-11-09T12:01:30.306Z,92.45
2017-11-09T12:03:57.986Z,91.94
2017-11-09T12:06:25.650Z,91.85
2017-11-09T12:08:53.273Z,92.16
2017-11-09T12:11:20.991Z,92.13
2017-11-09T12:13:48.601Z,92.22
2017-11-09T12:16:16.301Z,92.36
2017-11-09T12:18:43.988Z,92.53
2017-11-09T12:21:11.632Z,93.00
2017-11-09T12:23:39.320Z,92.85
2017-11-09T12:26:07.028Z,92.82
2017-11-09T12:28:34.714Z,93.04
2017-11-09T12:31:03.308Z,92.99
2017-11-09T12:33:30.983Z,93.31
2017-11-09T12:35:58.647Z,93.36
2017-11-09T12:38:26.302Z,93.53
2017-11-09T12:40:54.036Z,93.22
2017-11-09T12:43:21.689Z,93.12
2017-11-09T12:45:49.370Z,93.21
2017-11-09T12:50:36.843Z,92.55
2017-11-09T12:53:04.556Z,92.50
2017-11-09T12:55:32.246Z,92.61
2017-11-09T12:58:00.000Z,92.41
2017-11-09T13:00:27.669Z,92.46
2017-11-09T13:02:55.389Z,92.63
2017-11-09T13:05:23.070Z,92.71
2017-11-09T13:07:50.734Z,92.61
2017-11-09T13:10:18.335Z,92.37
2017-11-09T13:12:46.104Z,92.32
2017-11-09T13:15:13.801Z,92.28
2017-11-09T13:17:41.517Z,92.03
2017-11-09T13:20:09.210Z,92.24
2017-11-09T13:22:36.929Z,92.21
2017-11-09T13:25:04.547Z,92.36
2017-11-09T13:27:32.295Z,92.59
2017-11-09T13:29:59.973Z,92.59
2017-11-09T13:32:27.766Z,92.44
2017-11-09T13:34:55.433Z,92.17
2017-11-09T13:37:23.152Z,92.02
2017-11-09T13:39:50.933Z,91.68
2017-11-09T13:42:18.612Z,91.71
2017-11-09T13:44:46.237Z,92.25
2017-11-09T13:47:13.899Z,92.16
2017-11-09T13:49:41.595Z,92.02
2017-11-09T13:52:09.243Z,91.99
2017-11-09T13:54:36.947Z,91.80
2017-11-09T13:57:04.619Z,91.37
2017-11-09T13:59:32.339Z,91.17
2017-11-09T14:02:00.009Z,91.16
2017-11-09T14:04:27.728Z,91.14
2017-11-09T14:06:55.323Z,91.22
2017-11-09T14:09:23.053Z,91.22
2017-11-09T14:11:50.753Z,91.21
2017-11-09T14:14:18.458Z,91.29
2017-11-09T14:16:46.093Z,91.40
2017-11-09T14:19:13.760Z,91.59
2017-11-09T14:21:41.457Z,91.51
2017-11-09T14:24:09.226Z,91.39
2017-11-09T14:26:36.875Z,91.33
2017-11-09T14:29:04.564Z,91.43
2017-11-09T14:31:32.240Z,91.84
2017-11-09T14:33:59.914Z,91.66
2017-11-09T14:36:27.612Z,91.64
2017-11-09T14:38:55.228Z,91.79
2017-11-09T14:41:22.873Z,91.70
2017-11-09T14:43:50.543Z,91.91
2017-11-09T14:46:18.189Z,91.97
2017-11-09T14:48:45.850Z,92.09
2017-11-09T14:51:13.514Z,92.36
2017-11-09T14:53:41.198Z,92.37
2017-11-09T14:56:08.908Z,92.52
2017-11-09T14:58:36.572Z,92.63
2017-11-09T15:01:04.275Z,92.45
2017-11-09T15:03:31.896Z,92.51
2017-11-09T15:05:59.642Z,92.87
2017-11-09T15:08:27.341Z,92.77
2017-11-09T15:10:55.071Z,92.83
2017-11-09T15:13:22.734Z,92.69
2017-11-09T15:15:55.321Z,92.69
2017-11-09T15:18:22.921Z,92.65
2017-11-09T15:20:50.617Z,92.64
2017-11-09T15:23:18.278Z,92.61
2017-11-09T15:25:45.968Z,92.63
2017-11-09T15:28:13.624Z,92.60
2017-11-09T15:30:41.271Z,92.59
2017-11-09T15:33:09.035Z,92.32
2017-11-09T15:35:37.638Z,92.13
2017-11-09T15:38:05.280Z,92.10
2017-11-09T15:40:33.021Z,92.07
2017-11-09T15:43:00.719Z,92.18
2017-11-09T15:45:28.406Z,92.27
2017-11-09T15:47:56.107Z,92.31
2017-11-09T15:50:24.074Z,92.38
2017-11-09T15:52:51.782Z,92.37
2017-11-09T15:55:19.424Z,92.57
2017-11-09T15:57:47.070Z,92.57
2017-11-09T16:00:14.788Z,92.68
2017-11-09T16:02:42.515Z,92.73
2017-11-09T16:05:10.197Z,92.74
2017-11-09T16:07:39.681Z,92.63
2017-11-09T16:10:07.350Z,92.64
2017-11-09T16:12:35.001Z,92.84
2017-11-09T16:15:02.684Z,92.92
2017-11-09T16:17:30.333Z,92.89
2017-11-09T16:19:57.973Z,92.91
2017-11-09T16:22:25.641Z,92.99
2017-11-09T16:24:53.390Z,93.02
2017-11-09T16:27:23.083Z,93.17
2017-11-09T16:29:50.869Z,93.24
2017-11-09T16:32:18.593Z,93.37
2017-11-09T16:34:46.318Z,93.48
2017-11-09T16:37:14.027Z,93.71
2017-11-09T16:39:41.828Z,93.72
2017-11-09T16:42:09.570Z,93.88
2017-11-09T16:44:37.306Z,94.01
2017-11-09T16:47:05.028Z,94.13
2017-11-09T16:49:32.689Z,94.23
2017-11-09T16:52:00.345Z,94.43
2017-11-09T16:54:28.040Z,94.68
2017-11-09T16:56:55.722Z,94.88
2017-11-09T16:59:23.372Z,95.03
2017-11-09T17:01:51.043Z,95.20
2017-11-09T17:04:18.737Z,95.37
2017-11-09T17:06:46.401Z,95.45
2017-11-09T17:09:14.121Z,95.45
2017-11-09T17:11:41.760Z,95.33
2017-11-09T17:14:09.415Z,95.32
2017-11-09T17:16:37.023Z,95.49
2017-11-09T17:19:04.648Z,95.66
2017-11-09T17:21:32.292Z,95.82
2017-11-09T17:23:59.899Z,95.86
2017-11-09T17:26:27.552Z,95.75
2017-11-09T17:28:55.173Z,95.84
2017-11-09T17:31:22.854Z,95.87
2017-11-09T17:33:50.472Z,95.97
2017-11-09T17:36:18.123Z,96.05
2017-11-09T17:38:45.744Z,95.95
2017-11-09T17:41:16.479Z,95.96
2017-11-09T17:43:49.100Z,95.96
2017-11-09T17:46:16.798Z,95.94
2017-11-09T17:48:44.460Z,95.93
2017-11-09T17:51:13.935Z,96.00
2017-11-09T17:53:41.548Z,96.10
2017-11-09T17:56:09.276Z,96.16
2017-11-09T17:58:37.828Z,96.18
2017-11-09T18:01:05.528Z,96.21
2017-11-09T18:03:35.031Z,96.22
2017-11-09T18:06:02.657Z,96.29
2017-11-09T18:08:30.270Z,96.31
2017-11-09T18:10:57.968Z,96.09
2017-11-09T18:13:25.575Z,95.91
2017-11-09T18:15:53.216Z,95.83
2017-11-09T18:18:20.821Z,95.72
2017-11-09T18:20:48.491Z,95.63
2017-11-09T18:23:16.085Z,95.47
2017-11-09T18:25:43.728Z,95.34
2017-11-09T18:28:11.367Z,95.24
2017-11-09T18:30:39.044Z,95.18
2017-11-09T18:33:06.652Z,95.01
2017-11-09T18:35:34.260Z,94.83
2017-11-09T18:38:01.904Z,94.71
2017-11-09T18:40:29.535Z,94.75
2017-11-09T18:42:57.160Z,94.45
2017-11-09T18:45:24.771Z,94.36
2017-11-09T18:47:52.476Z,94.17
2017-11-09T18:50:20.085Z,94.19
2017-11-09T18:52:47.738Z,94.17
2017-11-09T18:55:15.340Z,94.04
2017-11-09T18:57:43.017Z,93.87
2017-11-09T19:00:10.704Z,94.08
2017-11-09T19:02:38.485Z,94.45
2017-11-09T19:05:06.143Z,94.75
2017-11-09T19:07:33.800Z,94.89
2017-11-09T19:10:01.409Z,95.46
2017-11-09T19:12:29.073Z,95.86
2017-11-09T19:14:56.695Z,96.06
2017-11-09T19:17:24.292Z,96.13
2017-11-09T19:19:52.009Z,96.34
2017-11-09T19:22:19.622Z,96.49
2017-11-09T19:24:47.382Z,96.46
2017-11-09T19:27:15.086Z,96.55
2017-11-09T19:29:42.797Z,96.40
2017-11-09T19:32:10.551Z,96.49
2017-11-09T19:34:38.184Z,96.31
2017-11-09T19:37:05.781Z,96.31
2017-11-09T19:39:33.446Z,96.25
2017-11-09T19:42:01.037Z,96.25
2017-11-09T19:44:28.696Z,96.40
2017-11-09T19:46:56.391Z,96.27
2017-11-09T19:49:24.105Z,96.15
2017-11-09T19:51:51.738Z,96.07
2017-11-09T19:54:19.375Z,96.11
2017-11-09T19:56:46.993Z,96.04
2017-11-09T19:59:14.699Z,96.05
2017-11-09T20:01:42.367Z,96.11
2017-11-09T20:04:10.028Z,95.82
2017-11-09T20:06:37.735Z,95.79
2017-11-09T20:09:05.447Z,95.76
2017-11-09T20:11:33.166Z,95.70
2017-11-09T20:14:00.852Z,95.76
2017-11-09T20:16:28.550Z,95.50
2017-11-09T20:18:56.143Z,95.62
2017-11-09T20:21:23.857Z,95.88
2017-11-09T20:23:51.538Z,95.88
2017-11-09T20:26:19.289Z,96.04
2017-11-09T20:28:46.900Z,96.10
2017-11-09T20:31:14.616Z,96.28
2017-11-09T20:33:42.232Z,96.28
2017-11-09T20:36:09.873Z,96.49
2017-11-09T20:38:37.460Z,96.54
2017-11-09T20:41:05.117Z,96.34
2017-11-09T20:43:32.791Z,96.46
2017-11-09T20:46:00.457Z,96.49
2017-11-09T20:48:28.126Z,96.51
2017-11-09T20:50:55.779Z,96.54
2017-11-09T20:53:23.458Z,96.73
2017-11-09T20:55:51.112Z,96.78
2017-11-09T20:58:18.780Z,96.86
2017-11-09T21:00:46.430Z,97.04
2017-11-09T21:03:14.092Z,97.25
2017-11-09T21:05:41.695Z,97.45
2017-11-09T21:08:09.417Z,97.66
2017-11-09T21:10:37.087Z,97.92
2017-11-09T21:13:04.792Z,98.15
2017-11-09T21:15:32.452Z,98.33
2017-11-09T21:18:00.147Z,98.55
2017-11-09T21:20:27.752Z,98.76
2017-11-09T21:22:55.740Z,98.95
2017-11-09T21:25:23.337Z,99.08
2017-11-09T21:27:50.968Z,99.22
2017-11-09T21:30:18.573Z,99.41
2017-11-09T21:32:46.258Z,99.53
2017-11-09T21:35:13.847Z,99.66
2017-11-09T21:37:41.569Z,99.77
2017-11-09T21:40:09.158Z,99.85
2017-11-09T21:42:36.802Z,100.00
2017-11-09T21:45:04.430Z,100.00
2017-11-09T21:47:32.027Z,100.00
2017-11-09T21:49:59.709Z,100.00
2017-11-09T21:52:27.323Z,100.00
2017-11-09T21:54:55.011Z,100.00
2017-11-09T21:57:22.651Z,100.00
2017-11-09T21:59:50.364Z,100.00
2017-11-09T22:02:17.958Z,100.00
2017-11-09T22:04:45.683Z,100.00
2017-11-09T22:07:13.375Z,100.00
2017-11-09T22:09:41.087Z,100.00
2017-11-09T22:12:08.690Z,100.00
2017-11-09T22:14:36.333Z,100.00
2017-11-09T22:17:03.981Z,100.00
2017-11-09T22:19:31.629Z,100.00
2017-11-09T22:21:59.231Z,100.00
2017-11-09T22:24:26.960Z,100.00
2017-11-09T22:26:54.568Z,100.00
2017-11-09T22:29:22.202Z,100.00
2017-11-09T22:31:49.873Z,100.00
2017-11-09T22:34:18.033Z,100.00
2017-11-09T22:36:45.645Z,100.00
2017-11-09T22:39:13.328Z,100.00
2017-11-09T22:41:41.048Z,100.00
2017-11-09T22:44:08.752Z,100.00
2017-11-09T22:46:36.357Z,100.00
2017-11-09T22:49:04.083Z,100.00
2017-11-09T22:51:31.774Z,100.00
2017-11-09T22:53:59.501Z,100.00
2017-11-09T22:56:27.174Z,100.00
2017-11-09T22:58:54.846Z,100.00
2017-11-09T23:01:22.556Z,100.00
2017-11-09T23:03:50.218Z,100.00
2017-11-09T23:06:17.920Z,100.00
2017-11-09T23:08:45.582Z,100.00
2017-11-09T23:11:13.315Z,100.00
2017-11-09T23:13:40.992Z,100.00
2017-11-09T23:16:08.685Z,100.00
2017-11-09T23:18:36.358Z,100.00
2017-11-09T23:21:04.092Z,100.00
2017-11-09T23:23:31.748Z,100.00
2017-11-09T23:25:59.455Z,100.00
2017-11-09T23:28:27.728Z,100.00
2017-11-09T23:30:55.438Z,100.00
2017-11-09T23:33:23.045Z,100.00
2017-11-09T23:35:50.650Z,100.00
2017-11-09T23:38:18.350Z,100.00
2017-11-09T23:40:46.044Z,100.00
2017-11-09T23:43:13.760Z,100.00
2017-11-09T23:45:41.419Z,100.00
2017-11-09T23:48:09.121Z,100.00
2017-11-09T23:50:36.785Z,100.00
2017-11-09T23:53:04.490Z,100.00
2017-11-09T23:55:32.154Z,100.00
2017-11-09T23:57:59.810Z,100.00
